createdAt,value
2018-06-16T00:00:53.786Z,20.60
2018-06-16T00:03:22.986Z,20.70
2018-06-16T00:05:58.241Z,20.60
2018-06-16T00:08:27.433Z,20.60
2018-06-16T00:13:57.463Z,20.60
2018-06-16T00:16:26.684Z,20.60
2018-06-16T00:18:55.919Z,20.60
2018-06-16T00:21:25.101Z,20.60
2018-06-16T00:24:00.444Z,20.60
2018-06-16T00:26:29.622Z,20.50
2018-06-16T00:28:58.802Z,20.50
2018-06-16T00:31:28.018Z,20.50
2018-06-16T00:33:57.188Z,20.40
2018-06-16T00:36:26.425Z,20.40
2018-06-16T00:38:58.792Z,20.40
2018-06-16T00:41:27.985Z,20.40
2018-06-16T00:43:57.206Z,20.30
2018-06-16T00:46:26.356Z,20.30
2018-06-16T00:48:55.532Z,20.20
2018-06-16T00:51:24.737Z,19.90
2018-06-16T00:58:02.414Z,20.20
2018-06-16T01:00:31.578Z,20.10
2018-06-16T01:03:00.746Z,20.10
2018-06-16T01:05:29.962Z,20.10
2018-06-16T01:07:59.121Z,20.00
2018-06-16T01:10:28.278Z,20.00
2018-06-16T01:12:57.485Z,20.00
2018-06-16T01:17:55.572Z,19.90
2018-06-16T01:23:25.285Z,19.90
2018-06-16T01:25:54.458Z,19.90
2018-06-16T01:28:23.625Z,19.80
2018-06-16T01:30:52.925Z,19.80
2018-06-16T01:33:22.194Z,19.80
2018-06-16T01:35:51.395Z,19.70
2018-06-16T01:38:20.598Z,19.70
2018-06-16T01:40:49.812Z,19.70
2018-06-16T01:43:19.030Z,19.70
2018-06-16T01:45:48.196Z,19.70
2018-06-16T01:48:17.376Z,19.60
2018-06-16T01:53:15.500Z,19.50
2018-06-16T01:55:44.725Z,19.50
2018-06-16T02:00:42.866Z,19.40
2018-06-16T02:03:12.048Z,19.30
2018-06-16T02:05:41.209Z,19.30
2018-06-16T02:08:10.398Z,19.30
2018-06-16T02:10:39.571Z,19.30
2018-06-16T02:13:09.017Z,19.30
2018-06-16T02:15:57.368Z,19.30
2018-06-16T02:18:26.611Z,19.30
2018-06-16T02:20:55.777Z,19.30
2018-06-16T02:23:25.525Z,18.80
2018-06-16T02:25:54.676Z,18.20
2018-06-16T02:33:53.635Z,18.90
2018-06-16T02:36:23.070Z,19.00
2018-06-16T02:38:52.215Z,19.00
2018-06-16T02:41:21.436Z,19.00
2018-06-16T02:43:50.724Z,19.00
2018-06-16T02:46:19.902Z,19.00
2018-06-16T02:48:49.086Z,18.90
2018-06-16T02:51:18.239Z,18.90
2018-06-16T02:53:47.448Z,18.90
2018-06-16T02:56:16.605Z,18.30
2018-06-16T02:58:58.104Z,18.30
2018-06-16T03:01:27.269Z,18.40
2018-06-16T03:03:56.961Z,18.10
2018-06-16T03:06:26.117Z,18.40
2018-06-16T03:08:55.286Z,18.50
2018-06-16T03:11:24.473Z,18.50
2018-06-16T03:13:53.691Z,18.50
2018-06-16T03:16:22.850Z,18.50
2018-06-16T03:18:52.036Z,18.40
2018-06-16T03:21:21.205Z,18.50
2018-06-16T03:23:50.465Z,18.50
2018-06-16T03:26:19.663Z,18.60
2018-06-16T03:28:48.862Z,18.60
2018-06-16T03:31:18.117Z,18.50
2018-06-16T03:33:47.390Z,18.50
2018-06-16T03:36:16.697Z,18.10
2018-06-16T03:38:45.865Z,18.40
2018-06-16T03:41:15.094Z,18.40
2018-06-16T03:43:44.270Z,18.40
2018-06-16T03:46:13.473Z,18.50
2018-06-16T03:48:42.736Z,18.50
2018-06-16T03:51:11.896Z,18.50
2018-06-16T03:53:41.092Z,18.40
2018-06-16T03:56:10.268Z,18.40
2018-06-16T03:58:39.471Z,18.40
2018-06-16T04:01:08.644Z,18.40
2018-06-16T04:03:37.845Z,18.40
2018-06-16T04:06:07.118Z,18.30
2018-06-16T04:11:37.070Z,18.00
2018-06-16T04:14:06.447Z,17.50
2018-06-16T04:16:35.684Z,18.00
2018-06-16T04:19:04.890Z,18.20
2018-06-16T04:24:34.634Z,18.10
2018-06-16T04:27:03.808Z,18.20
2018-06-16T04:29:32.977Z,18.20
2018-06-16T04:32:02.176Z,18.20
2018-06-16T04:34:31.398Z,17.40
2018-06-16T04:37:00.563Z,17.30
2018-06-16T04:39:29.784Z,17.80
2018-06-16T04:41:58.990Z,17.90
2018-06-16T04:44:28.206Z,17.70
2018-06-16T04:46:57.730Z,17.50
2018-06-16T04:52:27.414Z,17.30
2018-06-16T04:54:57.010Z,17.60
2018-06-16T04:57:26.196Z,17.90
2018-06-16T04:59:55.657Z,18.00
2018-06-16T05:02:24.849Z,18.10
2018-06-16T05:05:00.538Z,18.10
2018-06-16T05:07:29.689Z,18.10
2018-06-16T05:09:58.898Z,18.20
2018-06-16T05:12:28.115Z,18.10
2018-06-16T05:14:57.669Z,18.10
2018-06-16T05:20:27.483Z,17.50
2018-06-16T05:22:56.702Z,17.80
2018-06-16T05:25:25.874Z,17.40
2018-06-16T05:27:55.264Z,17.60
2018-06-16T05:30:24.462Z,18.00
2018-06-16T05:32:59.707Z,17.90
2018-06-16T05:35:28.937Z,17.80
2018-06-16T05:37:58.164Z,17.90
2018-06-16T05:40:27.377Z,18.40
2018-06-16T05:42:56.566Z,18.50
2018-06-16T05:45:25.802Z,18.60
2018-06-16T05:47:54.965Z,18.60
2018-06-16T05:50:24.157Z,18.40
2018-06-16T05:55:22.289Z,18.70
2018-06-16T05:57:51.525Z,18.90
2018-06-16T06:00:20.696Z,19.00
2018-06-16T06:02:49.893Z,18.90
2018-06-16T06:05:19.096Z,19.10
2018-06-16T06:07:48.484Z,19.20
2018-06-16T06:10:17.691Z,19.20
2018-06-16T06:12:47.045Z,19.10
2018-06-16T06:15:16.263Z,19.20
2018-06-16T06:17:45.436Z,19.30
2018-06-16T06:20:14.643Z,19.40
2018-06-16T06:22:43.863Z,19.50
2018-06-16T06:25:13.072Z,19.60
2018-06-16T06:27:58.642Z,19.40
2018-06-16T06:30:57.288Z,19.30
2018-06-16T06:33:26.485Z,19.30
2018-06-16T06:36:00.137Z,19.60
2018-06-16T06:41:57.947Z,19.70
2018-06-16T06:59:56.091Z,20.10
2018-06-16T07:41:27.155Z,21.90
2018-06-16T07:49:59.341Z,22.40
2018-06-16T07:55:28.551Z,22.50
2018-06-16T07:57:59.286Z,22.50
2018-06-16T08:00:57.701Z,22.60
2018-06-16T08:06:27.732Z,22.90
2018-06-16T08:10:04.105Z,23.10
2018-06-16T08:12:58.109Z,23.30
2018-06-16T08:21:57.273Z,23.50
2018-06-16T08:39:57.444Z,24.40
2018-06-16T08:45:56.610Z,24.50
2018-06-16T09:18:57.492Z,26.00
2018-06-16T09:21:26.745Z,25.70
2018-06-16T09:26:56.530Z,26.00
2018-06-16T09:38:26.544Z,26.40
2018-06-16T09:42:35.800Z,26.50
2018-06-16T09:48:05.285Z,26.70
2018-06-16T09:50:57.709Z,26.70
2018-06-16T10:08:56.420Z,26.80
2018-06-16T10:14:25.783Z,27.00
2018-06-16T10:16:54.981Z,27.30
2018-06-16T10:19:24.144Z,27.40
2018-06-16T10:21:53.335Z,27.50
2018-06-16T10:24:22.532Z,27.60
2018-06-16T10:26:51.704Z,27.40
2018-06-16T10:29:20.905Z,27.20
2018-06-16T10:31:50.060Z,27.40
2018-06-16T10:34:19.216Z,27.70
2018-06-16T10:36:48.492Z,27.90
2018-06-16T10:39:18.124Z,27.90
2018-06-16T10:44:47.908Z,28.10
2018-06-16T10:50:17.910Z,28.00
2018-06-16T10:52:47.112Z,28.20
2018-06-16T10:55:16.277Z,28.30
2018-06-16T10:57:45.456Z,28.20
2018-06-16T11:00:14.621Z,27.80
2018-06-16T11:02:43.989Z,28.20
2018-06-16T11:05:13.175Z,28.20
2018-06-16T11:07:42.320Z,28.30
2018-06-16T11:19:12.092Z,28.60
2018-06-16T11:24:59.735Z,29.00
2018-06-16T11:33:56.667Z,29.20
2018-06-16T11:42:56.468Z,29.50
2018-06-16T11:57:26.843Z,29.80
2018-06-16T12:22:58.773Z,30.60
2018-06-16T12:46:57.271Z,31.80
2018-06-16T12:52:26.434Z,31.40
2018-06-16T12:54:59.424Z,31.80
2018-06-16T12:57:57.881Z,31.40
2018-06-16T13:00:27.720Z,31.80
2018-06-16T13:14:59.404Z,32.90
2018-06-16T13:17:57.740Z,32.40
2018-06-16T13:23:26.862Z,32.50
2018-06-16T13:25:56.024Z,32.30
2018-06-16T13:28:25.236Z,32.30
2018-06-16T13:31:00.009Z,32.50
2018-06-16T13:33:57.792Z,32.90
2018-06-16T13:37:14.625Z,32.80
2018-06-16T13:39:43.852Z,32.70
2018-06-16T13:42:13.060Z,32.40
2018-06-16T13:47:26.914Z,32.00
2018-06-16T13:50:25.810Z,32.20
2018-06-16T13:52:55.008Z,32.60
2018-06-16T13:55:24.183Z,32.90
2018-06-16T14:00:58.905Z,33.20
2018-06-16T14:03:28.074Z,33.40
2018-06-16T14:05:57.249Z,33.20
2018-06-16T14:08:26.472Z,33.80
2018-06-16T14:10:55.651Z,34.00
2018-06-16T14:16:24.864Z,34.10
2018-06-16T14:18:54.121Z,34.10
2018-06-16T14:21:23.430Z,35.00
2018-06-16T14:26:53.750Z,34.90
2018-06-16T14:29:22.914Z,34.90
2018-06-16T14:31:52.093Z,34.60
2018-06-16T14:34:21.424Z,33.60
2018-06-16T14:36:50.776Z,33.20
2018-06-16T14:39:19.937Z,33.30
2018-06-16T14:44:33.945Z,33.90
2018-06-16T14:47:10.585Z,34.00
2018-06-16T14:49:41.292Z,33.50
2018-06-16T14:52:10.469Z,33.30
2018-06-16T14:57:40.606Z,34.10
2018-06-16T15:00:09.782Z,34.40
2018-06-16T15:02:38.921Z,34.70
2018-06-16T15:05:08.152Z,34.60
2018-06-16T15:07:37.350Z,34.50
2018-06-16T15:10:06.693Z,34.90
2018-06-16T15:12:35.897Z,34.60
2018-06-16T15:15:05.521Z,34.90
2018-06-16T15:17:34.785Z,34.80
2018-06-16T15:20:03.961Z,34.70
2018-06-16T15:22:33.124Z,35.00
2018-06-16T15:25:02.335Z,34.50
2018-06-16T15:27:31.588Z,34.10
2018-06-16T15:30:00.800Z,34.20
2018-06-16T15:32:29.970Z,34.80
2018-06-16T15:34:59.133Z,35.50
2018-06-16T15:40:28.921Z,35.50
2018-06-16T15:42:58.126Z,36.00
2018-06-16T15:45:27.336Z,35.60
2018-06-16T15:53:56.534Z,36.00
2018-06-16T15:56:25.737Z,36.00
2018-06-16T15:58:55.285Z,36.20
2018-06-16T16:01:24.453Z,35.60
2018-06-16T16:03:53.649Z,36.10
2018-06-16T16:06:22.839Z,36.90
2018-06-16T16:08:52.019Z,37.40
2018-06-16T16:11:21.241Z,37.80
2018-06-16T16:13:50.465Z,37.60
2018-06-16T16:16:19.662Z,37.40
2018-06-16T16:21:49.056Z,37.50
2018-06-16T16:24:18.255Z,37.30
2018-06-16T16:26:47.506Z,37.70
2018-06-16T16:32:17.684Z,37.70
2018-06-16T16:34:59.278Z,37.30
2018-06-16T16:40:28.997Z,37.50
2018-06-16T16:42:59.866Z,37.30
2018-06-16T16:45:29.219Z,37.10
2018-06-16T16:47:58.382Z,37.30
2018-06-16T16:50:27.575Z,37.00
2018-06-16T16:52:56.790Z,37.10
2018-06-16T16:55:26.020Z,37.70
2018-06-16T16:58:01.237Z,37.40
2018-06-16T17:00:57.230Z,37.00
2018-06-16T17:03:26.470Z,36.70
2018-06-16T17:08:24.677Z,37.40
2018-06-16T17:10:54.032Z,37.40
2018-06-16T17:13:23.239Z,37.30
2018-06-16T17:15:52.474Z,37.20
2018-06-16T17:18:21.685Z,37.70
2018-06-16T17:20:50.858Z,37.80
2018-06-16T17:23:20.109Z,37.30
2018-06-16T17:25:49.293Z,37.70
2018-06-16T17:28:18.445Z,37.50
2018-06-16T17:30:47.662Z,37.30
2018-06-16T17:33:16.898Z,37.20
2018-06-16T17:35:46.102Z,37.40
2018-06-16T17:38:15.288Z,37.40
2018-06-16T17:40:57.959Z,37.30
2018-06-16T17:43:27.205Z,37.30
2018-06-16T17:45:56.424Z,37.40
2018-06-16T17:48:25.696Z,37.40
2018-06-16T17:50:54.891Z,37.40
2018-06-16T17:53:24.076Z,37.20
2018-06-16T17:55:53.297Z,37.30
2018-06-16T17:58:22.506Z,37.40
2018-06-16T18:00:51.665Z,37.20
2018-06-16T18:03:20.913Z,36.90
2018-06-16T18:05:50.080Z,36.90
2018-06-16T18:08:19.261Z,37.10
2018-06-16T18:13:55.751Z,36.80
2018-06-16T18:16:24.937Z,36.80
2018-06-16T18:18:54.165Z,36.70
2018-06-16T18:21:23.348Z,36.80
2018-06-16T18:23:52.558Z,36.80
2018-06-16T18:26:21.767Z,36.90
2018-06-16T18:28:50.966Z,36.80
2018-06-16T18:31:20.216Z,36.80
2018-06-16T18:33:49.375Z,36.70
2018-06-16T18:36:18.552Z,36.60
2018-06-16T18:39:00.503Z,36.40
2018-06-16T18:41:29.697Z,36.30
2018-06-16T18:43:59.765Z,36.30
2018-06-16T18:46:28.998Z,36.20
2018-06-16T18:48:58.229Z,36.00
2018-06-16T18:51:27.426Z,35.90
2018-06-16T18:56:57.204Z,35.70
2018-06-16T18:59:26.357Z,35.50
2018-06-16T19:01:55.568Z,35.40
2018-06-16T19:04:24.798Z,35.20
2018-06-16T19:07:00.204Z,34.70
2018-06-16T19:09:29.394Z,34.70
2018-06-16T19:11:58.642Z,34.60
2018-06-16T19:14:27.808Z,34.60
2018-06-16T19:16:56.964Z,34.50
2018-06-16T19:22:26.595Z,34.30
2018-06-16T19:24:55.973Z,34.10
2018-06-16T19:27:25.161Z,34.00
2018-06-16T19:29:54.373Z,33.90
2018-06-16T19:32:23.589Z,33.80
2018-06-16T19:37:26.809Z,33.40
2018-06-16T19:39:56.031Z,33.30
2018-06-16T19:42:25.202Z,33.10
2018-06-16T19:44:54.397Z,33.00
2018-06-16T19:47:23.569Z,32.90
2018-06-16T19:49:58.997Z,32.80
2018-06-16T19:52:28.186Z,32.60
2018-06-16T19:54:57.350Z,32.50
2018-06-16T19:57:26.573Z,32.30
2018-06-16T19:59:55.741Z,32.00
2018-06-16T20:02:25.110Z,32.00
2018-06-16T20:04:54.281Z,31.90
2018-06-16T20:07:23.485Z,31.60
2018-06-16T20:09:52.779Z,31.60
2018-06-16T20:12:21.951Z,31.50
2018-06-16T20:14:51.133Z,31.40
2018-06-16T20:20:17.689Z,31.20
2018-06-16T20:22:46.858Z,30.50
2018-06-16T20:25:16.065Z,30.70
2018-06-16T20:27:45.291Z,30.70
2018-06-16T20:30:14.524Z,30.70
2018-06-16T20:32:43.699Z,30.50
2018-06-16T20:35:12.861Z,30.20
2018-06-16T20:37:42.135Z,29.70
2018-06-16T20:40:11.305Z,29.80
2018-06-16T20:42:40.526Z,29.80
2018-06-16T20:45:09.725Z,29.50
2018-06-16T20:47:38.910Z,28.90
2018-06-16T20:50:08.898Z,28.80
2018-06-16T20:52:38.132Z,28.50
2018-06-16T20:55:07.346Z,28.20
2018-06-16T21:00:36.963Z,27.60
2018-06-16T21:03:06.442Z,27.60
2018-06-16T21:05:35.691Z,27.70
2018-06-16T21:08:04.893Z,27.40
2018-06-16T21:10:34.071Z,27.40
2018-06-16T21:13:03.306Z,27.70
2018-06-16T21:15:32.534Z,27.80
2018-06-16T21:18:01.740Z,27.90
2018-06-16T21:20:31.009Z,27.90
2018-06-16T21:23:00.235Z,27.70
2018-06-16T21:28:30.255Z,27.60
2018-06-16T21:30:59.446Z,27.50
2018-06-16T21:33:28.689Z,27.40
2018-06-16T21:35:57.957Z,27.40
2018-06-16T21:38:27.153Z,27.30
2018-06-16T21:40:56.557Z,27.00
2018-06-16T21:43:25.757Z,27.10
2018-06-16T21:45:54.949Z,27.10
2018-06-16T21:48:24.131Z,27.00
2018-06-16T21:50:53.321Z,27.00
2018-06-16T21:56:22.649Z,26.80
2018-06-16T21:58:51.898Z,26.70
2018-06-16T22:01:21.072Z,26.70
2018-06-16T22:03:50.252Z,26.60
2018-06-16T22:06:19.465Z,26.50
2018-06-16T22:08:48.644Z,26.40
2018-06-16T22:11:17.856Z,26.30
2018-06-16T22:13:47.049Z,24.70
2018-06-16T22:16:16.327Z,26.20
2018-06-16T22:18:45.494Z,26.10
2018-06-16T22:21:14.763Z,25.30
2018-06-16T22:23:58.333Z,25.20
2018-06-16T22:26:27.480Z,25.30
2018-06-16T22:28:56.717Z,25.40
2018-06-16T22:31:25.876Z,25.50
2018-06-16T22:33:55.083Z,25.40
2018-06-16T22:40:29.717Z,25.10
2018-06-16T22:42:58.858Z,25.20
2018-06-16T22:45:28.066Z,25.20
2018-06-16T22:47:57.307Z,25.10
2018-06-16T22:53:13.729Z,25.00
2018-06-16T22:55:42.901Z,25.00
2018-06-16T22:58:12.072Z,24.90
2018-06-16T23:00:41.295Z,24.80
2018-06-16T23:03:10.461Z,24.80
2018-06-16T23:08:39.781Z,24.70
2018-06-16T23:11:08.965Z,24.60
2018-06-16T23:13:38.129Z,24.60
2018-06-16T23:16:07.349Z,24.50
2018-06-16T23:18:36.503Z,24.50
2018-06-16T23:21:05.696Z,24.40
2018-06-16T23:23:34.905Z,24.40
2018-06-16T23:26:04.086Z,24.40
2018-06-16T23:28:33.305Z,24.30
2018-06-16T23:31:02.496Z,24.20
2018-06-16T23:33:31.699Z,23.80
2018-06-16T23:36:00.894Z,23.10
2018-06-16T23:38:30.106Z,22.80
2018-06-16T23:40:59.485Z,23.00
2018-06-16T23:43:28.822Z,22.80
2018-06-16T23:45:57.991Z,22.70
2018-06-16T23:48:27.187Z,23.00
2018-06-16T23:50:56.417Z,22.90
2018-06-16T23:53:25.678Z,23.00
2018-06-16T23:55:54.831Z,23.30
